Time;durP1;ratioP1;P1;durP2;ratioP2;P2;SDS_P1;SDS_P2;PMS_P1;PMS_P2;Temp;Humidity;BMP_temperature;BMP_pressure;BME280_temperature;BME280_humidity;BME280_pressure;Samples;Min_cycle;Max_cycle;Signal;HPM_P1;HPM_P2
2022/03/23 00:01:18;;;;;;;16.38;9.35;;;;;;;;;;5030819;28;20037;-71
2022/03/23 00:03:44;;;;;;;17.60;9.95;;;;;;;;;;5030639;28;20494;-71
2022/03/23 00:06:09;;;;;;;14.52;9.27;;;;;;;;;;5030751;28;20036;-72
2022/03/23 00:08:34;;;;;;;15.32;9.27;;;;;;;;;;5030276;28;20042;-72
2022/03/23 00:11:00;;;;;;;15.27;9.25;;;;;;;;;;5029000;28;20025;-72
2022/03/23 00:13:26;;;;;;;16.23;9.82;;;;;;;;;;5029120;28;20095;-72
2022/03/23 00:15:51;;;;;;;17.40;9.77;;;;;;;;;;5030503;28;20383;-72
2022/03/23 00:18:16;;;;;;;14.60;9.55;;;;;;;;;;5030425;28;20076;-71
2022/03/23 00:20:42;;;;;;;14.00;8.93;;;;;;;;;;5030544;28;20021;-71
2022/03/23 00:23:10;;;;;;;17.80;10.32;;;;;;;;;;5030510;28;20087;-72
2022/03/23 00:25:36;;;;;;;15.88;9.55;;;;;;;;;;5029189;28;20395;-72
2022/03/23 00:28:03;;;;;;;15.15;10.13;;;;;;;;;;5029966;28;20037;-72
2022/03/23 00:30:29;;;;;;;15.55;9.90;;;;;;;;;;5030436;28;20517;-72
2022/03/23 00:32:55;;;;;;;18.38;9.85;;;;;;;;;;5028778;28;20029;-71
2022/03/23 00:35:21;;;;;;;18.35;9.77;;;;;;;;;;5030349;28;20026;-72
2022/03/23 00:37:47;;;;;;;16.80;9.93;;;;;;;;;;5030458;28;20044;-71
2022/03/23 00:40:12;;;;;;;17.58;9.57;;;;;;;;;;5030426;28;20112;-72
2022/03/23 00:42:38;;;;;;;19.83;10.68;;;;;;;;;;5030241;28;20450;-72
2022/03/23 00:45:04;;;;;;;15.38;9.27;;;;;;;;;;5029807;28;20025;-71
2022/03/23 00:47:30;;;;;;;17.42;10.32;;;;;;;;;;5030123;28;20025;-71
2022/03/23 00:49:55;;;;;;;17.77;9.60;;;;;;;;;;5028324;28;20467;-71
2022/03/23 00:52:21;;;;;;;16.30;9.60;;;;;;;;;;5030207;28;20029;-72
2022/03/23 00:54:46;;;;;;;17.33;10.40;;;;;;;;;;5030266;28;20386;-71
2022/03/23 00:57:11;;;;;;;16.00;9.90;;;;;;;;;;5029761;28;20033;-72
2022/03/23 00:59:37;;;;;;;17.10;10.68;;;;;;;;;;5029856;28;20036;-71
2022/03/23 01:02:04;;;;;;;19.30;10.60;;;;;;;;;;5029288;28;20026;-71
2022/03/23 01:04:29;;;;;;;22.80;10.68;;;;;;;;;;5029684;28;20037;-71
2022/03/23 01:06:54;;;;;;;18.70;10.80;;;;;;;;;;5029672;28;20029;-71
2022/03/23 01:09:25;;;;;;;15.23;9.77;;;;;;;;;;5029710;28;20026;-71
2022/03/23 01:11:51;;;;;;;17.95;9.38;;;;;;;;;;5029591;28;20091;-71
2022/03/23 01:14:17;;;;;;;18.40;10.60;;;;;;;;;;5029481;28;20048;-72
2022/03/23 01:16:43;;;;;;;16.30;9.80;;;;;;;;;;5029437;28;20104;-71
2022/03/23 01:19:08;;;;;;;15.98;9.57;;;;;;;;;;5028828;28;20456;-71
2022/03/23 01:21:35;;;;;;;19.08;10.77;;;;;;;;;;5029704;28;20035;-71
2022/03/23 01:24:00;;;;;;;20.63;10.30;;;;;;;;;;5029911;28;20021;-71
2022/03/23 01:26:25;;;;;;;17.73;10.55;;;;;;;;;;5029471;28;20033;-71
2022/03/23 01:28:51;;;;;;;16.70;10.02;;;;;;;;;;5029558;28;20029;-72
2022/03/23 01:31:16;;;;;;;17.05;10.13;;;;;;;;;;5029334;28;20037;-72
2022/03/23 01:33:41;;;;;;;19.35;10.40;;;;;;;;;;5029787;28;20040;-72
2022/03/23 01:36:07;;;;;;;18.17;10.75;;;;;;;;;;5029281;28;20519;-71
2022/03/23 01:38:32;;;;;;;17.40;10.23;;;;;;;;;;5029601;28;20083;-71
2022/03/23 01:40:57;;;;;;;17.23;10.35;;;;;;;;;;5029555;28;20041;-71
2022/03/23 01:43:23;;;;;;;17.88;10.02;;;;;;;;;;5029897;28;20029;-72
2022/03/23 01:45:48;;;;;;;17.83;10.13;;;;;;;;;;5028864;28;20148;-72
2022/03/23 01:48:14;;;;;;;16.10;10.40;;;;;;;;;;5029640;28;20049;-72
2022/03/23 01:50:40;;;;;;;16.98;9.60;;;;;;;;;;5029593;28;20394;-71
2022/03/23 01:53:06;;;;;;;16.55;9.52;;;;;;;;;;5028857;28;20099;-72
2022/03/23 01:55:31;;;;;;;18.08;10.82;;;;;;;;;;5029298;28;20471;-71
2022/03/23 01:57:57;;;;;;;17.30;10.13;;;;;;;;;;5029754;28;20502;-71
2022/03/23 02:00:22;;;;;;;16.75;9.93;;;;;;;;;;5029803;28;20037;-71
2022/03/23 02:02:48;;;;;;;18.45;9.82;;;;;;;;;;5032881;28;20030;-72
2022/03/23 02:05:14;;;;;;;17.13;10.48;;;;;;;;;;5033030;28;20030;-71
2022/03/23 02:07:39;;;;;;;17.33;9.82;;;;;;;;;;5033060;28;20378;-72
2022/03/23 02:10:06;;;;;;;18.17;10.52;;;;;;;;;;5032983;28;20025;-72
2022/03/23 02:12:32;;;;;;;18.92;11.25;;;;;;;;;;5031229;28;20021;-71
2022/03/23 02:15:01;;;;;;;18.95;10.85;;;;;;;;;;5032863;28;20071;-72
2022/03/23 02:17:26;;;;;;;16.67;10.25;;;;;;;;;;5032149;28;20025;-71
2022/03/23 02:19:52;;;;;;;17.30;10.57;;;;;;;;;;5032398;28;20076;-72
2022/03/23 02:22:18;;;;;;;19.10;10.45;;;;;;;;;;5032774;28;20498;-71
2022/03/23 02:24:46;;;;;;;20.33;10.68;;;;;;;;;;5032088;28;20467;-71
2022/03/23 02:27:12;;;;;;;19.02;10.88;;;;;;;;;;5050916;22;20069;-71
2022/03/23 02:29:38;;;;;;;17.35;10.88;;;;;;;;;;5012391;28;20041;-70
2022/03/23 02:32:05;;;;;;;19.10;11.48;;;;;;;;;;5012908;28;20029;-71
2022/03/23 02:34:31;;;;;;;19.38;10.50;;;;;;;;;;5012982;28;20502;-71
2022/03/23 02:36:59;;;;;;;17.27;10.43;;;;;;;;;;5012528;28;20084;-70
2022/03/23 02:39:28;;;;;;;18.48;10.68;;;;;;;;;;5012588;28;20045;-71
2022/03/23 02:41:54;;;;;;;17.48;10.50;;;;;;;;;;5012875;28;20098;-70
2022/03/23 02:44:20;;;;;;;16.40;10.52;;;;;;;;;;5012322;28;20160;-71
2022/03/23 02:46:45;;;;;;;17.73;10.30;;;;;;;;;;5012550;28;20080;-70
2022/03/23 02:49:11;;;;;;;19.58;11.20;;;;;;;;;;5011494;28;20494;-71
2022/03/23 02:51:37;;;;;;;20.88;10.68;;;;;;;;;;5012225;28;20236;-70
2022/03/23 03:02:36;;;;;;;16.35;9.48;;;;;;;;;;4992752;28;20133;-71
2022/03/23 03:05:07;;;;;;;17.05;11.07;;;;;;;;;;5005858;28;20361;-70
2022/03/23 03:08:44;;;;;;;15.65;10.20;;;;;;;;;;5012139;28;20053;-73
2022/03/23 03:10:19;;;;;;;15.68;9.88;;;;;;;;;;5012148;28;20231;-71
2022/03/23 03:12:45;;;;;;;16.17;9.65;;;;;;;;;;5011590;28;20064;-70
2022/03/23 03:15:11;;;;;;;17.05;10.80;;;;;;;;;;5012445;28;20475;-71
2022/03/23 03:17:36;;;;;;;17.05;10.27;;;;;;;;;;5011744;28;20049;-71
2022/03/23 03:20:04;;;;;;;17.27;10.05;;;;;;;;;;5011854;28;20072;-73
2022/03/23 03:22:34;;;;;;;19.45;11.23;;;;;;;;;;5012118;28;20148;-71
2022/03/23 03:24:59;;;;;;;17.83;10.40;;;;;;;;;;5011328;28;20497;-71
2022/03/23 03:27:24;;;;;;;16.00;9.35;;;;;;;;;;5011420;28;20116;-71
2022/03/23 03:29:49;;;;;;;20.27;10.55;;;;;;;;;;5011798;28;20109;-71
2022/03/23 03:32:15;;;;;;;16.17;9.93;;;;;;;;;;5011537;28;20030;-71
2022/03/23 03:34:40;;;;;;;19.45;10.80;;;;;;;;;;5011811;28;20668;-71
2022/03/23 03:37:05;;;;;;;17.27;9.82;;;;;;;;;;5011366;28;20041;-71
2022/03/23 03:39:30;;;;;;;19.63;10.77;;;;;;;;;;5011654;28;20107;-70
2022/03/23 03:41:57;;;;;;;19.25;10.60;;;;;;;;;;5011481;28;20498;-71
2022/03/23 03:44:22;;;;;;;14.77;8.73;;;;;;;;;;5011536;28;20073;-71
2022/03/23 03:46:47;;;;;;;18.70;10.40;;;;;;;;;;5011225;28;20491;-71
2022/03/23 03:49:15;;;;;;;18.80;11.15;;;;;;;;;;5010831;28;20079;-71
2022/03/23 03:51:40;;;;;;;17.10;10.63;;;;;;;;;;5011473;28;20057;-71
2022/03/23 03:54:05;;;;;;;20.67;10.75;;;;;;;;;;5011659;28;20037;-71
2022/03/23 03:56:31;;;;;;;20.73;10.95;;;;;;;;;;5011088;28;20025;-71
2022/03/23 03:58:56;;;;;;;17.73;10.82;;;;;;;;;;5011158;28;20261;-71
2022/03/23 04:01:22;;;;;;;17.42;10.48;;;;;;;;;;5010936;28;20471;-71
2022/03/23 04:03:47;;;;;;;22.35;10.88;;;;;;;;;;5010875;28;20089;-70
2022/03/23 04:06:12;;;;;;;16.88;10.48;;;;;;;;;;5010773;28;20030;-71
2022/03/23 04:08:38;;;;;;;18.13;10.88;;;;;;;;;;5011248;28;20080;-71
2022/03/23 04:11:04;;;;;;;20.25;11.15;;;;;;;;;;5011140;28;20037;-71
2022/03/23 04:13:29;;;;;;;16.00;10.50;;;;;;;;;;5010688;28;20022;-73
2022/03/23 04:15:55;;;;;;;22.25;11.35;;;;;;;;;;5009598;28;20029;-71
2022/03/23 04:18:20;;;;;;;19.50;10.73;;;;;;;;;;5010711;28;20113;-70
2022/03/23 04:20:45;;;;;;;21.55;11.13;;;;;;;;;;5011095;28;20048;-70
2022/03/23 04:23:11;;;;;;;17.85;10.80;;;;;;;;;;5010133;28;20545;-70
2022/03/23 04:25:36;;;;;;;17.42;10.68;;;;;;;;;;5010811;28;20178;-71
2022/03/23 04:28:01;;;;;;;16.85;10.10;;;;;;;;;;5011326;28;20060;-71
2022/03/23 04:30:33;;;;;;;18.52;10.73;;;;;;;;;;5011136;28;20045;-71
2022/03/23 04:32:59;;;;;;;18.42;10.55;;;;;;;;;;5011015;28;20026;-71
2022/03/23 04:35:24;;;;;;;18.73;10.50;;;;;;;;;;5010801;28;20549;-71
2022/03/23 04:37:51;;;;;;;18.35;10.30;;;;;;;;;;5010173;28;20104;-73
2022/03/23 04:40:18;;;;;;;20.17;11.02;;;;;;;;;;5010347;28;20029;-73
2022/03/23 04:42:44;;;;;;;18.42;10.27;;;;;;;;;;5010448;28;20073;-73
2022/03/23 04:45:11;;;;;;;17.33;10.73;;;;;;;;;;5010789;28;20105;-73
2022/03/23 04:47:36;;;;;;;18.40;10.13;;;;;;;;;;5010123;28;20366;-73
2022/03/23 04:50:05;;;;;;;19.27;10.68;;;;;;;;;;5010340;28;20032;-72
2022/03/23 04:52:30;;;;;;;20.58;10.95;;;;;;;;;;5010463;28;20066;-72
2022/03/23 04:54:56;;;;;;;19.65;10.10;;;;;;;;;;5010493;28;20100;-73
2022/03/23 04:57:27;;;;;;;18.73;10.35;;;;;;;;;;5009961;28;20029;-71
2022/03/23 04:59:54;;;;;;;20.13;10.60;;;;;;;;;;5010081;28;20085;-73
2022/03/23 05:02:19;;;;;;;19.67;11.07;;;;;;;;;;5009448;28;20065;-72
2022/03/23 05:04:45;;;;;;;17.85;10.73;;;;;;;;;;5010197;28;20482;-72
2022/03/23 05:07:11;;;;;;;18.80;10.40;;;;;;;;;;5010238;28;20117;-72
2022/03/23 05:09:36;;;;;;;20.08;10.30;;;;;;;;;;5009434;28;20112;-72
2022/03/23 05:12:02;;;;;;;17.85;10.55;;;;;;;;;;5009796;28;20507;-73
2022/03/23 05:14:27;;;;;;;19.55;10.57;;;;;;;;;;5010552;28;20100;-72
2022/03/23 05:16:53;;;;;;;21.08;11.07;;;;;;;;;;5010075;28;20026;-72
2022/03/23 05:19:18;;;;;;;21.38;10.70;;;;;;;;;;5010018;28;20125;-73
2022/03/23 05:21:43;;;;;;;19.23;10.70;;;;;;;;;;5010300;28;20026;-73
2022/03/23 05:24:09;;;;;;;16.45;9.98;;;;;;;;;;5010356;28;20022;-73
2022/03/23 05:26:34;;;;;;;19.58;11.25;;;;;;;;;;5010191;28;20028;-72
2022/03/23 05:28:59;;;;;;;18.90;10.23;;;;;;;;;;5009722;28;20065;-72
2022/03/23 05:31:25;;;;;;;18.95;10.38;;;;;;;;;;5009843;28;20033;-72
2022/03/23 05:33:50;;;;;;;20.83;11.15;;;;;;;;;;5009675;28;20026;-72
2022/03/23 05:36:16;;;;;;;16.90;10.80;;;;;;;;;;5012280;28;20110;-72
2022/03/23 05:38:41;;;;;;;18.23;10.25;;;;;;;;;;5013597;28;20553;-72
2022/03/23 05:41:07;;;;;;;21.88;11.32;;;;;;;;;;5013858;28;20025;-72
2022/03/23 05:43:32;;;;;;;20.25;10.35;;;;;;;;;;5013679;28;20022;-73
2022/03/23 05:45:57;;;;;;;16.30;9.88;;;;;;;;;;5012646;28;20534;-72
2022/03/23 05:48:23;;;;;;;18.55;10.60;;;;;;;;;;5012834;28;20373;-72
2022/03/23 05:50:48;;;;;;;15.68;10.57;;;;;;;;;;5013389;28;20373;-72
2022/03/23 05:53:13;;;;;;;21.85;10.80;;;;;;;;;;5013396;28;20156;-72
2022/03/23 05:55:39;;;;;;;18.75;10.23;;;;;;;;;;5013585;28;20030;-72
2022/03/23 05:58:04;;;;;;;19.02;11.13;;;;;;;;;;5013168;28;20033;-72
2022/03/23 06:00:31;;;;;;;19.40;10.50;;;;;;;;;;5013744;28;20037;-72
2022/03/23 06:02:56;;;;;;;19.58;10.90;;;;;;;;;;5013201;28;20022;-73
2022/03/23 06:05:21;;;;;;;19.77;11.30;;;;;;;;;;5013679;28;20463;-72
2022/03/23 06:07:47;;;;;;;21.70;11.25;;;;;;;;;;5012930;28;20072;-72
2022/03/23 06:10:12;;;;;;;23.98;13.38;;;;;;;;;;5013250;28;20033;-72
2022/03/23 06:12:37;;;;;;;25.60;14.52;;;;;;;;;;5013221;28;20032;-72
2022/03/23 06:15:05;;;;;;;27.67;13.00;;;;;;;;;;5013293;28;20061;-72
2022/03/23 06:17:31;;;;;;;19.85;11.75;;;;;;;;;;5013256;28;20033;-73
2022/03/23 06:19:56;;;;;;;19.30;11.65;;;;;;;;;;5012820;28;20026;-72
2022/03/23 06:22:21;;;;;;;19.83;10.98;;;;;;;;;;5011500;28;20033;-73
2022/03/23 06:24:47;;;;;;;19.40;10.95;;;;;;;;;;5007500;28;20092;-72
2022/03/23 06:27:12;;;;;;;19.20;11.43;;;;;;;;;;5011121;28;20041;-72
2022/03/23 06:29:38;;;;;;;19.52;11.57;;;;;;;;;;5003599;28;20049;-72
2022/03/23 06:32:04;;;;;;;15.98;10.65;;;;;;;;;;5013167;28;20029;-72
2022/03/23 06:34:29;;;;;;;20.45;11.55;;;;;;;;;;5010493;28;20026;-73
2022/03/23 06:36:55;;;;;;;23.17;11.50;;;;;;;;;;5012615;28;20033;-72
2022/03/23 06:39:20;;;;;;;22.00;12.05;;;;;;;;;;5011401;28;20080;-73
2022/03/23 06:41:46;;;;;;;19.10;11.32;;;;;;;;;;5012984;28;20040;-73
2022/03/23 06:44:11;;;;;;;19.95;11.45;;;;;;;;;;5012872;28;20054;-73
2022/03/23 06:46:37;;;;;;;22.75;12.52;;;;;;;;;;5012059;28;20117;-72
2022/03/23 06:49:02;;;;;;;21.05;12.15;;;;;;;;;;5012358;28;20502;-72
2022/03/23 06:51:28;;;;;;;19.23;12.13;;;;;;;;;;5009070;28;20491;-72
2022/03/23 06:53:53;;;;;;;21.90;12.32;;;;;;;;;;5007174;28;20030;-72
2022/03/23 06:56:19;;;;;;;22.95;11.32;;;;;;;;;;5012159;28;20022;-72
2022/03/23 06:58:44;;;;;;;22.67;13.50;;;;;;;;;;5011742;28;20109;-72
2022/03/23 07:01:10;;;;;;;19.70;12.18;;;;;;;;;;5011778;28;20026;-72
2022/03/23 07:03:35;;;;;;;18.33;11.13;;;;;;;;;;5008946;28;20030;-72
2022/03/23 07:06:00;;;;;;;25.48;11.82;;;;;;;;;;5002781;28;20246;-72
2022/03/23 07:11:10;;;;;;;19.65;10.40;;;;;;;;;;5007410;28;20036;-73
2022/03/23 07:13:35;;;;;;;15.60;10.70;;;;;;;;;;5012045;28;20026;-73
2022/03/23 07:16:00;;;;;;;13.90;10.00;;;;;;;;;;5011959;28;20018;-72
2022/03/23 07:18:27;;;;;;;18.08;10.60;;;;;;;;;;5011608;28;20092;-70
2022/03/23 07:20:52;;;;;;;16.75;10.80;;;;;;;;;;5010753;28;20026;-72
2022/03/23 07:23:17;;;;;;;18.75;10.73;;;;;;;;;;5011354;28;20034;-72
2022/03/23 07:25:43;;;;;;;17.65;10.40;;;;;;;;;;5010135;28;20040;-73
2022/03/23 07:28:08;;;;;;;18.02;10.88;;;;;;;;;;5010699;28;20377;-72
2022/03/23 07:30:35;;;;;;;15.60;10.30;;;;;;;;;;5010914;28;20026;-71
2022/03/23 07:33:01;;;;;;;18.33;10.77;;;;;;;;;;5005820;28;20061;-72
2022/03/23 07:35:26;;;;;;;16.55;10.30;;;;;;;;;;5010149;28;20028;-72
2022/03/23 07:37:52;;;;;;;16.38;10.40;;;;;;;;;;5010503;28;20018;-72
2022/03/23 07:40:18;;;;;;;14.90;10.52;;;;;;;;;;5010910;28;20468;-73
2022/03/23 07:42:43;;;;;;;17.55;10.70;;;;;;;;;;5011485;28;20134;-70
2022/03/23 07:45:09;;;;;;;14.85;10.23;;;;;;;;;;5011170;28;20033;-71
2022/03/23 07:47:34;;;;;;;16.75;11.15;;;;;;;;;;5010915;28;20105;-70
2022/03/23 07:50:00;;;;;;;17.35;11.88;;;;;;;;;;5010881;28;20125;-71
2022/03/23 07:52:25;;;;;;;13.68;11.07;;;;;;;;;;5011132;28;20470;-70
2022/03/23 07:54:52;;;;;;;14.60;11.43;;;;;;;;;;5010887;28;20028;-71
2022/03/23 07:57:17;;;;;;;16.30;11.40;;;;;;;;;;5010236;28;20395;-71
2022/03/23 07:59:43;;;;;;;17.40;10.82;;;;;;;;;;5009627;28;20030;-71
2022/03/23 08:02:09;;;;;;;15.20;10.98;;;;;;;;;;5010619;28;20411;-70
2022/03/23 08:04:34;;;;;;;15.55;11.23;;;;;;;;;;5010701;28;20025;-70
2022/03/23 08:07:01;;;;;;;14.40;10.88;;;;;;;;;;5011073;28;20022;-70
2022/03/23 08:09:26;;;;;;;13.73;10.82;;;;;;;;;;5010774;28;20036;-71
2022/03/23 08:11:52;;;;;;;14.65;11.45;;;;;;;;;;5011013;28;20026;-71
2022/03/23 08:14:17;;;;;;;14.15;10.82;;;;;;;;;;5010744;28;20033;-72
2022/03/23 08:16:42;;;;;;;13.82;11.38;;;;;;;;;;5010160;28;20022;-72
2022/03/23 08:19:08;;;;;;;14.35;11.38;;;;;;;;;;5010289;28;20076;-71
2022/03/23 08:21:34;;;;;;;15.27;11.23;;;;;;;;;;5008942;28;20465;-71
2022/03/23 08:24:00;;;;;;;11.98;10.60;;;;;;;;;;5006590;28;20484;-72
2022/03/23 08:26:26;;;;;;;15.32;10.60;;;;;;;;;;5006490;28;20029;-71
2022/03/23 08:28:52;;;;;;;12.05;10.70;;;;;;;;;;5007299;28;20051;-71
2022/03/23 08:31:17;;;;;;;18.42;11.75;;;;;;;;;;5028739;23;20518;-72
2022/03/23 08:33:43;;;;;;;14.15;11.32;;;;;;;;;;5006480;28;20028;-73
2022/03/23 08:36:08;;;;;;;16.10;11.23;;;;;;;;;;5007433;28;20185;-73
2022/03/23 08:38:35;;;;;;;14.00;11.50;;;;;;;;;;5007345;28;20084;-72
2022/03/23 08:41:00;;;;;;;17.08;11.82;;;;;;;;;;5015276;28;20029;-73
2022/03/23 08:43:26;;;;;;;13.88;10.85;;;;;;;;;;5029002;28;20025;-73
2022/03/23 08:45:52;;;;;;;14.98;11.20;;;;;;;;;;5029750;28;20490;-73
2022/03/23 08:48:20;;;;;;;15.55;11.57;;;;;;;;;;5029578;28;20029;-73
2022/03/23 08:50:49;;;;;;;13.10;11.73;;;;;;;;;;5003303;28;20034;-73
2022/03/23 08:53:15;;;;;;;16.23;11.63;;;;;;;;;;4990288;28;20085;-72
2022/03/23 08:55:40;;;;;;;15.00;11.50;;;;;;;;;;5001202;28;20061;-72
2022/03/23 08:58:06;;;;;;;16.45;12.23;;;;;;;;;;5027659;28;20091;-73
2022/03/23 09:00:33;;;;;;;13.00;11.63;;;;;;;;;;5029934;28;20541;-72
2022/03/23 09:02:58;;;;;;;13.15;11.52;;;;;;;;;;5030130;28;20188;-73
2022/03/23 09:05:24;;;;;;;14.18;11.13;;;;;;;;;;5029478;28;20375;-73
2022/03/23 09:07:49;;;;;;;15.07;11.30;;;;;;;;;;5001875;28;20391;-76
2022/03/23 09:10:15;;;;;;;14.70;11.57;;;;;;;;;;4998102;28;20037;-74
2022/03/23 09:12:42;;;;;;;14.50;11.30;;;;;;;;;;5013765;28;20518;-73
2022/03/23 09:15:09;;;;;;;13.60;11.38;;;;;;;;;;5025220;28;20463;-74
2022/03/23 09:17:35;;;;;;;14.63;11.95;;;;;;;;;;5033632;28;20083;-75
2022/03/23 09:20:01;;;;;;;16.85;11.65;;;;;;;;;;5032838;28;20510;-74
2022/03/23 09:22:34;;;;;;;16.02;11.77;;;;;;;;;;5033656;28;20063;-75
2022/03/23 09:25:02;;;;;;;13.43;11.80;;;;;;;;;;5015676;28;20053;-72
2022/03/23 09:27:27;;;;;;;15.90;11.88;;;;;;;;;;5024631;28;20022;-72
2022/03/23 09:29:53;;;;;;;14.45;12.02;;;;;;;;;;5013526;28;20030;-73
2022/03/23 09:32:18;;;;;;;15.40;11.87;;;;;;;;;;5015589;28;20373;-73
2022/03/23 09:34:45;;;;;;;15.25;11.25;;;;;;;;;;5033114;28;20370;-73
2022/03/23 09:39:54;;;;;;;13.48;11.68;;;;;;;;;;5014153;28;20514;-73
2022/03/23 09:42:20;;;;;;;14.23;11.02;;;;;;;;;;5012724;28;20060;-73
2022/03/23 09:44:47;;;;;;;12.98;11.40;;;;;;;;;;5032584;28;20030;-73
2022/03/23 09:47:12;;;;;;;14.30;11.05;;;;;;;;;;5033093;28;20395;-73
2022/03/23 09:49:38;;;;;;;14.82;11.52;;;;;;;;;;5016390;28;20032;-73
2022/03/23 09:52:07;;;;;;;12.27;10.93;;;;;;;;;;5031739;28;20458;-74
2022/03/23 09:54:32;;;;;;;14.48;11.20;;;;;;;;;;4997588;28;20029;-74
2022/03/23 09:56:57;;;;;;;16.38;10.70;;;;;;;;;;4993877;28;20033;-72
2022/03/23 09:59:23;;;;;;;13.77;11.43;;;;;;;;;;5017490;28;20052;-72
2022/03/23 10:01:49;;;;;;;15.90;11.90;;;;;;;;;;5032504;28;20072;-72
2022/03/23 10:04:20;;;;;;;13.68;11.50;;;;;;;;;;5032875;28;20280;-73
2022/03/23 10:07:21;;;;;;;13.68;10.60;;;;;;;;;;5027955;28;20506;-73
2022/03/23 10:10:18;;;;;;;12.60;10.20;;;;;;;;;;5010292;28;20034;-73
2022/03/23 10:12:55;;;;;;;12.77;10.55;;;;;;;;;;5013078;28;20022;-73
2022/03/23 10:15:48;;;;;;;14.23;10.48;;;;;;;;;;5017698;28;20048;-72
2022/03/23 10:18:32;;;;;;;13.93;9.95;;;;;;;;;;5032122;28;20075;-72
2022/03/23 10:20:57;;;;;;;12.90;10.50;;;;;;;;;;5031359;28;20467;-73
2022/03/23 10:23:23;;;;;;;12.10;10.02;;;;;;;;;;5022903;28;20077;-73
2022/03/23 10:25:49;;;;;;;13.23;9.70;;;;;;;;;;4993320;28;20117;-73
2022/03/23 10:28:15;;;;;;;13.05;10.55;;;;;;;;;;5029718;28;20378;-73
2022/03/23 10:30:42;;;;;;;12.75;10.40;;;;;;;;;;5031996;28;20026;-73
2022/03/23 10:33:19;;;;;;;14.73;9.98;;;;;;;;;;5032063;28;20533;-74
2022/03/23 10:35:45;;;;;;;15.45;10.80;;;;;;;;;;5030839;28;20017;-74
2022/03/23 10:38:29;;;;;;;14.98;10.35;;;;;;;;;;5032194;28;20462;-73
2022/03/23 10:40:55;;;;;;;13.25;10.40;;;;;;;;;;5019220;28;20163;-73
2022/03/23 10:43:34;;;;;;;14.23;10.35;;;;;;;;;;5032485;28;20105;-72
2022/03/23 10:46:07;;;;;;;13.95;9.70;;;;;;;;;;5032289;28;20025;-73
2022/03/23 10:48:32;;;;;;;15.50;10.30;;;;;;;;;;5032184;28;20017;-73
2022/03/23 10:50:58;;;;;;;15.20;10.20;;;;;;;;;;5032137;28;20058;-73
2022/03/23 10:53:31;;;;;;;13.02;10.40;;;;;;;;;;5031633;28;20346;-73
2022/03/23 10:55:57;;;;;;;12.52;9.57;;;;;;;;;;5030272;28;20025;-73
2022/03/23 10:58:25;;;;;;;14.45;10.00;;;;;;;;;;5012281;28;20395;-74
2022/03/23 11:00:53;;;;;;;13.60;9.90;;;;;;;;;;5013682;28;20022;-74
2022/03/23 11:03:19;;;;;;;13.95;9.95;;;;;;;;;;5031700;28;20370;-73
2022/03/23 11:05:46;;;;;;;20.05;13.57;;;;;;;;;;5020187;28;20021;-73
2022/03/23 11:08:22;;;;;;;21.10;13.98;;;;;;;;;;4997373;28;20374;-75
2022/03/23 11:15:46;;;;;;;16.10;10.82;;;;;;;;;;4992633;28;20037;-75
2022/03/23 11:16:45;;;;;;;13.90;10.45;;;;;;;;;;4992199;28;20041;-76
2022/03/23 11:19:10;;;;;;;15.20;9.93;;;;;;;;;;4992163;28;20030;-75
2022/03/23 11:22:05;;;;;;;14.13;9.73;;;;;;;;;;4999212;28;20464;-75
2022/03/23 11:24:37;;;;;;;14.23;8.98;;;;;;;;;;5011826;28;20028;-75
2022/03/23 11:27:06;;;;;;;13.23;9.40;;;;;;;;;;5011691;28;20037;-75
2022/03/23 11:29:33;;;;;;;14.10;9.52;;;;;;;;;;5011493;28;20433;-75
2022/03/23 11:32:02;;;;;;;13.90;9.20;;;;;;;;;;5010023;28;20104;-75
2022/03/23 11:34:32;;;;;;;11.65;8.35;;;;;;;;;;5011897;28;20318;-75
2022/03/23 11:36:58;;;;;;;13.00;7.32;;;;;;;;;;4999311;28;20018;-75
2022/03/23 11:39:23;;;;;;;11.43;7.35;;;;;;;;;;4991373;28;20037;-75
2022/03/23 11:41:51;;;;;;;11.98;8.32;;;;;;;;;;4991991;28;20169;-76
2022/03/23 11:44:19;;;;;;;12.10;8.45;;;;;;;;;;4991951;28;20025;-75
2022/03/23 11:46:45;;;;;;;16.25;8.65;;;;;;;;;;4991732;28;20086;-74
2022/03/23 11:49:27;;;;;;;16.25;9.15;;;;;;;;;;5009539;28;20304;-75
2022/03/23 11:52:13;;;;;;;14.52;8.80;;;;;;;;;;5011429;28;20057;-74
2022/03/23 11:57:54;;;;;;;23.83;10.10;;;;;;;;;;5011290;28;20040;-75
2022/03/23 12:00:24;;;;;;;17.30;9.25;;;;;;;;;;5011067;28;20029;-75
2022/03/23 12:02:50;;;;;;;18.42;8.82;;;;;;;;;;4996663;28;20198;-74
2022/03/23 12:05:22;;;;;;;17.17;9.32;;;;;;;;;;4991300;28;20033;-75
2022/03/23 12:07:48;;;;;;;;;;;;;;;;;;4991932;28;20076;-75
2022/03/23 12:10:24;;;;;;;16.70;9.17;;;;;;;;;;5007258;28;19914;-75
2022/03/23 12:12:50;;;;;;;13.48;8.15;;;;;;;;;;4996009;28;20367;-75
2022/03/23 12:15:24;;;;;;;15.57;7.95;;;;;;;;;;4987676;28;20443;-75
2022/03/23 12:17:55;;;;;;;14.25;8.30;;;;;;;;;;4989522;28;20090;-74
2022/03/23 12:20:29;;;;;;;20.23;9.07;;;;;;;;;;5000528;28;20056;-75
2022/03/23 12:23:25;;;;;;;14.07;8.13;;;;;;;;;;5012180;28;20022;-75
2022/03/23 12:26:04;;;;;;;16.10;8.80;;;;;;;;;;5017218;28;20041;-75
2022/03/23 12:28:40;;;;;;;17.15;8.63;;;;;;;;;;4988061;28;20026;-75
2022/03/23 12:31:10;;;;;;;15.10;8.68;;;;;;;;;;4998380;28;20057;-75
2022/03/23 12:33:56;;;;;;;15.77;8.50;;;;;;;;;;4995562;28;20048;-75
2022/03/23 12:39:44;;;;;;;15.05;8.32;;;;;;;;;;5025946;28;20091;-75
2022/03/23 12:42:12;;;;;;;15.80;7.87;;;;;;;;;;5014114;28;20025;-75
2022/03/23 12:44:40;;;;;;;13.15;8.00;;;;;;;;;;5011348;28;20048;-76
2022/03/23 12:47:05;;;;;;;14.68;8.25;;;;;;;;;;5006720;28;20088;-74
2022/03/23 12:58:10;;;;;;;15.77;8.20;;;;;;;;;;5014689;28;20418;-74
2022/03/23 13:00:40;;;;;;;12.52;7.40;;;;;;;;;;5025528;28;20025;-75
2022/03/23 13:03:05;;;;;;;15.65;6.82;;;;;;;;;;5024292;28;20083;-75
2022/03/23 13:05:36;;;;;;;11.63;6.55;;;;;;;;;;5026708;28;20104;-75
2022/03/23 13:08:30;;;;;;;12.00;6.78;;;;;;;;;;5006850;28;20495;-74
2022/03/23 13:10:59;;;;;;;15.50;6.93;;;;;;;;;;5008907;28;20559;-75
2022/03/23 13:13:37;;;;;;;13.55;7.82;;;;;;;;;;5018442;28;20037;-74
2022/03/23 13:16:04;;;;;;;14.95;7.45;;;;;;;;;;5009494;28;20079;-77
2022/03/23 13:18:31;;;;;;;12.85;7.00;;;;;;;;;;5025489;28;20112;-74
2022/03/23 13:20:58;;;;;;;16.35;8.32;;;;;;;;;;5020849;28;20018;-74
2022/03/23 13:23:27;;;;;;;17.33;8.40;;;;;;;;;;5026668;28;20026;-75
2022/03/23 13:26:04;;;;;;;11.80;6.72;;;;;;;;;;5026502;28;20025;-75
2022/03/23 13:28:32;;;;;;;12.52;7.15;;;;;;;;;;5008418;28;20035;-74
2022/03/23 13:31:02;;;;;;;10.20;7.00;;;;;;;;;;5025592;28;20029;-75
2022/03/23 13:34:01;;;;;;;10.35;7.03;;;;;;;;;;5005775;28;20039;-74
2022/03/23 13:36:26;;;;;;;13.35;7.38;;;;;;;;;;4986335;28;20038;-75
2022/03/23 13:38:54;;;;;;;11.43;6.63;;;;;;;;;;4987313;28;20053;-74
2022/03/23 13:44:10;;;;;;;11.07;6.70;;;;;;;;;;5027037;28;20047;-74
2022/03/23 13:46:36;;;;;;;12.13;7.30;;;;;;;;;;5013922;28;20026;-73
2022/03/23 13:49:12;;;;;;;15.20;6.97;;;;;;;;;;5006418;28;20073;-74
2022/03/23 13:51:42;;;;;;;13.10;7.30;;;;;;;;;;5018055;28;20022;-75
2022/03/23 13:54:10;;;;;;;13.77;7.53;;;;;;;;;;5026118;28;20040;-75
2022/03/23 13:56:37;;;;;;;14.65;7.80;;;;;;;;;;5020946;28;20509;-74
2022/03/23 13:59:04;;;;;;;14.48;7.45;;;;;;;;;;4989638;28;20030;-74
2022/03/23 14:01:31;;;;;;;12.88;7.68;;;;;;;;;;5007935;28;20391;-75
2022/03/23 14:04:02;;;;;;;13.63;7.15;;;;;;;;;;5016049;28;20037;-74
2022/03/23 14:06:28;;;;;;;12.47;6.93;;;;;;;;;;5008372;28;20390;-74
2022/03/23 14:08:57;;;;;;;11.35;7.18;;;;;;;;;;5007720;28;20081;-74
2022/03/23 14:14:27;;;;;;;9.55;6.72;;;;;;;;;;4989983;28;20041;-74
2022/03/23 14:17:25;;;;;;;14.82;7.45;;;;;;;;;;4991018;28;20427;-74
2022/03/23 14:19:53;;;;;;;12.75;7.43;;;;;;;;;;4990803;28;20022;-74
2022/03/23 14:22:22;;;;;;;11.27;6.97;;;;;;;;;;5015083;28;20079;-75
2022/03/23 14:24:49;;;;;;;12.73;7.90;;;;;;;;;;5026946;28;20099;-73
2022/03/23 14:27:21;;;;;;;16.48;7.22;;;;;;;;;;5026403;28;20021;-74
2022/03/23 14:29:55;;;;;;;;;;;;;;;;;;5018700;28;20021;-75
2022/03/23 14:32:26;;;;;;;12.60;7.35;;;;;;;;;;5026682;28;19913;-74
2022/03/23 14:34:52;;;;;;;14.52;6.90;;;;;;;;;;5026271;28;20398;-74
2022/03/23 14:37:17;;;;;;;10.02;6.90;;;;;;;;;;5025794;28;20013;-73
2022/03/23 14:39:45;;;;;;;15.30;6.57;;;;;;;;;;5028902;28;20025;-76
2022/03/23 14:42:13;;;;;;;9.75;6.72;;;;;;;;;;5022314;28;20105;-74
2022/03/23 14:44:42;;;;;;;11.70;6.57;;;;;;;;;;5018224;28;20034;-73
2022/03/23 14:47:08;;;;;;;16.10;7.63;;;;;;;;;;5010358;28;20035;-75
2022/03/23 14:49:36;;;;;;;12.05;6.70;;;;;;;;;;5003212;28;20212;-74
2022/03/23 14:52:03;;;;;;;13.07;7.35;;;;;;;;;;5009516;28;20025;-73
2022/03/23 14:54:29;;;;;;;14.07;7.75;;;;;;;;;;5001814;28;20041;-74
2022/03/23 14:56:54;;;;;;;13.63;7.38;;;;;;;;;;5023632;28;20026;-74
2022/03/23 14:59:21;;;;;;;13.00;6.88;;;;;;;;;;4987831;28;20156;-74
2022/03/23 15:01:48;;;;;;;14.88;7.10;;;;;;;;;;4994246;28;20564;-74
2022/03/23 15:04:14;;;;;;;9.90;7.03;;;;;;;;;;5006965;28;20096;-73